Airfield :
LOGIN :

Register | Disclaimer

   EN    FR    IT 

 










Legend :    VFR   Marginal VFR   IFR   Intensive IFR   Very Intensive IFR
Visi :
Ceiling :
>= 8 km
>= 3000ft
5 to 8 km
1000 to 3000 ft
1500m to 5 km
500 to 1000 ft
800 to 1500m
200 to 500 ft
< 800m
< 200 ft
Symbols :   Thunderstorms  Fog  Heavy snow  Heavy precipitations  Wind > 20 kt
SIGMETs :     Misc.  Thunderstorms  Icing  Turbulence  Mountain Waves  Volcanic Ashes






- Airport Elevation : 62 ft
- IATA code : TAN


GMTT - Tanger Ibn Batouta

CURRENT METAR :
  • 162230Z 21004KT 8000 FEW013 22/21 Q1013 NOSIG

EXPIRED METARs :
  • 162200Z 20003KT 160V220 9000 FEW013 22/20 Q1013 NOSIG
  • 162130Z 22004KT CAVOK 22/21 Q1013 NOSIG
  • 162100Z 24004KT 200V270 CAVOK 22/20 Q1013 NOSIG
  • 162030Z 26006KT CAVOK 22/20 Q1012 NOSIG
  • 162000Z 26008KT CAVOK 22/20 Q1012 NOSIG

TAF TAF GMTT
Valid from the 16 at 18:00 until the 18 at 00:00 UTC


161700Z 1618/1724 26009KT CAVOK
BECMG 1621/1701 8000 BKN016



MET'MAP, your aeronautical weather chart ! - Copyright ORBIFLY December 2007 - Disclaimer

ORBIFLY MET'MAP TEAM :

Programming & Development : Alexandra Zaïnal
Original concept : Baudouin d'Aumeries
Technical & hardware support : Manuel Goepfert
Assistance : Marc-Olivier Méhu




SOURCES & CREDITS :

   NOAA